sensor_id;sensor_type;location;lat;lon;timestamp;P1;durP1;ratioP1;P2;durP2;ratioP2
20956;SDS011;10637;47.970;7.830;2024-03-17T00:00:41;13.57;;;3.30;;
20956;SDS011;10637;47.970;7.830;2024-03-17T00:05:42;12.27;;;2.80;;
20956;SDS011;10637;47.970;7.830;2024-03-17T00:10:43;9.40;;;2.70;;
20956;SDS011;10637;47.970;7.830;2024-03-17T00:15:44;13.60;;;2.87;;
20956;SDS011;10637;47.970;7.830;2024-03-17T00:20:45;11.57;;;3.33;;
20956;SDS011;10637;47.970;7.830;2024-03-17T00:25:45;12.80;;;3.60;;
20956;SDS011;10637;47.970;7.830;2024-03-17T00:30:46;12.93;;;3.70;;
20956;SDS011;10637;47.970;7.830;2024-03-17T00:35:47;10.57;;;3.50;;
20956;SDS011;10637;47.970;7.830;2024-03-17T00:40:48;10.53;;;3.30;;
20956;SDS011;10637;47.970;7.830;2024-03-17T00:45:52;16.57;;;3.43;;
20956;SDS011;10637;47.970;7.830;2024-03-17T00:50:56;14.30;;;3.53;;
20956;SDS011;10637;47.970;7.830;2024-03-17T00:55:58;12.70;;;3.83;;
20956;SDS011;10637;47.970;7.830;2024-03-17T01:01:00;13.23;;;3.53;;
20956;SDS011;10637;47.970;7.830;2024-03-17T01:06:04;10.57;;;3.70;;
20956;SDS011;10637;47.970;7.830;2024-03-17T01:11:05;12.93;;;3.60;;
20956;SDS011;10637;47.970;7.830;2024-03-17T01:16:08;11.50;;;3.30;;
20956;SDS011;10637;47.970;7.830;2024-03-17T01:21:09;15.17;;;4.23;;
20956;SDS011;10637;47.970;7.830;2024-03-17T01:26:10;14.03;;;3.20;;
20956;SDS011;10637;47.970;7.830;2024-03-17T01:31:11;14.10;;;3.20;;
20956;SDS011;10637;47.970;7.830;2024-03-17T01:36:12;12.77;;;2.90;;
20956;SDS011;10637;47.970;7.830;2024-03-17T01:41:13;16.67;;;2.70;;
20956;SDS011;10637;47.970;7.830;2024-03-17T01:46:15;11.93;;;3.13;;
20956;SDS011;10637;47.970;7.830;2024-03-17T01:51:17;17.60;;;3.13;;
20956;SDS011;10637;47.970;7.830;2024-03-17T01:56:19;11.33;;;2.20;;
20956;SDS011;10637;47.970;7.830;2024-03-17T02:01:20;15.63;;;2.60;;
20956;SDS011;10637;47.970;7.830;2024-03-17T02:06:21;12.30;;;2.47;;
20956;SDS011;10637;47.970;7.830;2024-03-17T02:11:24;12.73;;;2.40;;
20956;SDS011;10637;47.970;7.830;2024-03-17T02:16:30;10.00;;;2.67;;
20956;SDS011;10637;47.970;7.830;2024-03-17T02:21:31;10.27;;;2.57;;
20956;SDS011;10637;47.970;7.830;2024-03-17T02:26:31;10.83;;;2.33;;
20956;SDS011;10637;47.970;7.830;2024-03-17T02:31:32;13.00;;;2.77;;
20956;SDS011;10637;47.970;7.830;2024-03-17T02:36:33;11.10;;;2.50;;
20956;SDS011;10637;47.970;7.830;2024-03-17T02:41:34;13.00;;;2.43;;
20956;SDS011;10637;47.970;7.830;2024-03-17T02:46:34;11.50;;;2.43;;
20956;SDS011;10637;47.970;7.830;2024-03-17T02:51:35;13.27;;;2.50;;
20956;SDS011;10637;47.970;7.830;2024-03-17T02:56:36;12.50;;;2.87;;
20956;SDS011;10637;47.970;7.830;2024-03-17T03:01:37;10.30;;;2.37;;
20956;SDS011;10637;47.970;7.830;2024-03-17T03:06:38;13.03;;;2.50;;
20956;SDS011;10637;47.970;7.830;2024-03-17T03:11:42;10.97;;;2.50;;
20956;SDS011;10637;47.970;7.830;2024-03-17T03:16:42;11.17;;;2.87;;
20956;SDS011;10637;47.970;7.830;2024-03-17T03:21:43;8.57;;;2.60;;
20956;SDS011;10637;47.970;7.830;2024-03-17T03:26:44;12.50;;;2.80;;
20956;SDS011;10637;47.970;7.830;2024-03-17T03:31:45;10.43;;;2.40;;
20956;SDS011;10637;47.970;7.830;2024-03-17T03:36:46;12.83;;;2.70;;
20956;SDS011;10637;47.970;7.830;2024-03-17T03:41:46;11.00;;;2.70;;
20956;SDS011;10637;47.970;7.830;2024-03-17T03:46:47;10.97;;;2.80;;
20956;SDS011;10637;47.970;7.830;2024-03-17T03:51:48;11.27;;;3.33;;
20956;SDS011;10637;47.970;7.830;2024-03-17T03:56:49;10.97;;;2.50;;
20956;SDS011;10637;47.970;7.830;2024-03-17T04:01:49;12.90;;;2.90;;
20956;SDS011;10637;47.970;7.830;2024-03-17T04:06:50;13.93;;;3.13;;
20956;SDS011;10637;47.970;7.830;2024-03-17T04:11:51;10.53;;;2.63;;
20956;SDS011;10637;47.970;7.830;2024-03-17T04:16:52;12.47;;;3.23;;
20956;SDS011;10637;47.970;7.830;2024-03-17T04:21:54;11.77;;;3.47;;
20956;SDS011;10637;47.970;7.830;2024-03-17T04:26:55;10.87;;;2.93;;
20956;SDS011;10637;47.970;7.830;2024-03-17T04:31:55;9.47;;;2.83;;
20956;SDS011;10637;47.970;7.830;2024-03-17T04:36:56;14.77;;;3.00;;
20956;SDS011;10637;47.970;7.830;2024-03-17T04:41:58;11.83;;;3.23;;
20956;SDS011;10637;47.970;7.830;2024-03-17T04:47:00;14.47;;;3.70;;
20956;SDS011;10637;47.970;7.830;2024-03-17T04:52:01;15.30;;;3.30;;
20956;SDS011;10637;47.970;7.830;2024-03-17T04:57:02;10.47;;;3.70;;
20956;SDS011;10637;47.970;7.830;2024-03-17T05:02:03;14.10;;;3.50;;
20956;SDS011;10637;47.970;7.830;2024-03-17T05:07:04;14.20;;;3.40;;
20956;SDS011;10637;47.970;7.830;2024-03-17T05:12:05;15.90;;;3.60;;
20956;SDS011;10637;47.970;7.830;2024-03-17T05:17:06;13.80;;;4.43;;
20956;SDS011;10637;47.970;7.830;2024-03-17T05:22:07;12.70;;;3.63;;
20956;SDS011;10637;47.970;7.830;2024-03-17T05:27:08;13.07;;;3.83;;
20956;SDS011;10637;47.970;7.830;2024-03-17T05:32:08;12.37;;;3.13;;
20956;SDS011;10637;47.970;7.830;2024-03-17T05:37:09;11.13;;;3.20;;
20956;SDS011;10637;47.970;7.830;2024-03-17T05:42:10;9.07;;;3.37;;
20956;SDS011;10637;47.970;7.830;2024-03-17T05:47:11;12.50;;;3.60;;
20956;SDS011;10637;47.970;7.830;2024-03-17T05:52:13;13.97;;;4.00;;
20956;SDS011;10637;47.970;7.830;2024-03-17T05:57:13;13.03;;;3.77;;
20956;SDS011;10637;47.970;7.830;2024-03-17T06:02:16;13.53;;;3.77;;
20956;SDS011;10637;47.970;7.830;2024-03-17T06:07:19;12.80;;;3.70;;
20956;SDS011;10637;47.970;7.830;2024-03-17T06:12:19;13.03;;;4.00;;
20956;SDS011;10637;47.970;7.830;2024-03-17T06:17:20;11.57;;;3.63;;
20956;SDS011;10637;47.970;7.830;2024-03-17T06:22:21;13.77;;;3.57;;
20956;SDS011;10637;47.970;7.830;2024-03-17T06:27:23;13.53;;;4.30;;
20956;SDS011;10637;47.970;7.830;2024-03-17T06:32:24;14.13;;;3.23;;
20956;SDS011;10637;47.970;7.830;2024-03-17T06:37:25;13.67;;;3.50;;
20956;SDS011;10637;47.970;7.830;2024-03-17T06:42:26;9.97;;;2.90;;
20956;SDS011;10637;47.970;7.830;2024-03-17T06:47:26;9.07;;;2.90;;
20956;SDS011;10637;47.970;7.830;2024-03-17T06:52:27;11.50;;;3.43;;
20956;SDS011;10637;47.970;7.830;2024-03-17T06:57:28;14.23;;;3.10;;
20956;SDS011;10637;47.970;7.830;2024-03-17T07:02:29;13.23;;;3.20;;
20956;SDS011;10637;47.970;7.830;2024-03-17T07:07:29;12.93;;;3.37;;
20956;SDS011;10637;47.970;7.830;2024-03-17T07:12:30;11.13;;;3.00;;
20956;SDS011;10637;47.970;7.830;2024-03-17T07:17:31;11.40;;;3.40;;
20956;SDS011;10637;47.970;7.830;2024-03-17T07:22:32;10.73;;;3.00;;
20956;SDS011;10637;47.970;7.830;2024-03-17T07:27:33;12.00;;;2.60;;
20956;SDS011;10637;47.970;7.830;2024-03-17T07:32:37;9.03;;;2.43;;
20956;SDS011;10637;47.970;7.830;2024-03-17T07:37:38;10.70;;;2.87;;
20956;SDS011;10637;47.970;7.830;2024-03-17T07:42:39;11.10;;;3.00;;
20956;SDS011;10637;47.970;7.830;2024-03-17T07:47:40;12.90;;;2.87;;
20956;SDS011;10637;47.970;7.830;2024-03-17T07:52:41;13.53;;;5.10;;
20956;SDS011;10637;47.970;7.830;2024-03-17T07:57:42;12.57;;;5.20;;
20956;SDS011;10637;47.970;7.830;2024-03-17T08:02:46;12.13;;;4.63;;
20956;SDS011;10637;47.970;7.830;2024-03-17T08:07:47;18.03;;;6.13;;
20956;SDS011;10637;47.970;7.830;2024-03-17T08:12:48;12.00;;;4.30;;
20956;SDS011;10637;47.970;7.830;2024-03-17T08:17:48;10.77;;;3.93;;
20956;SDS011;10637;47.970;7.830;2024-03-17T08:22:49;14.97;;;5.00;;
20956;SDS011;10637;47.970;7.830;2024-03-17T08:27:50;13.67;;;6.37;;
20956;SDS011;10637;47.970;7.830;2024-03-17T08:32:51;11.93;;;5.03;;
20956;SDS011;10637;47.970;7.830;2024-03-17T08:37:52;12.17;;;5.00;;
20956;SDS011;10637;47.970;7.830;2024-03-17T08:42:56;14.27;;;5.63;;
20956;SDS011;10637;47.970;7.830;2024-03-17T08:47:57;13.27;;;5.90;;
20956;SDS011;10637;47.970;7.830;2024-03-17T08:52:57;15.23;;;6.30;;
20956;SDS011;10637;47.970;7.830;2024-03-17T08:57:58;15.20;;;6.80;;
20956;SDS011;10637;47.970;7.830;2024-03-17T09:02:59;13.33;;;6.43;;
20956;SDS011;10637;47.970;7.830;2024-03-17T09:08:00;12.53;;;5.73;;
20956;SDS011;10637;47.970;7.830;2024-03-17T09:13:01;14.83;;;5.90;;
20956;SDS011;10637;47.970;7.830;2024-03-17T09:18:01;13.30;;;5.27;;
20956;SDS011;10637;47.970;7.830;2024-03-17T09:23:03;13.87;;;5.60;;
20956;SDS011;10637;47.970;7.830;2024-03-17T09:28:04;14.50;;;6.03;;
20956;SDS011;10637;47.970;7.830;2024-03-17T09:33:05;15.27;;;6.07;;
20956;SDS011;10637;47.970;7.830;2024-03-17T09:38:06;15.57;;;5.87;;
20956;SDS011;10637;47.970;7.830;2024-03-17T09:43:08;13.77;;;5.73;;
20956;SDS011;10637;47.970;7.830;2024-03-17T09:48:15;13.80;;;5.07;;
20956;SDS011;10637;47.970;7.830;2024-03-17T09:53:17;14.20;;;6.13;;
20956;SDS011;10637;47.970;7.830;2024-03-17T09:58:26;17.40;;;6.67;;
20956;SDS011;10637;47.970;7.830;2024-03-17T10:03:40;15.27;;;5.93;;
20956;SDS011;10637;47.970;7.830;2024-03-17T10:08:52;17.67;;;6.87;;
20956;SDS011;10637;47.970;7.830;2024-03-17T10:14:04;13.97;;;6.97;;
20956;SDS011;10637;47.970;7.830;2024-03-17T10:19:16;14.83;;;6.17;;
20956;SDS011;10637;47.970;7.830;2024-03-17T10:24:26;14.47;;;5.93;;
20956;SDS011;10637;47.970;7.830;2024-03-17T10:29:32;14.70;;;6.00;;
20956;SDS011;10637;47.970;7.830;2024-03-17T10:34:35;13.10;;;5.90;;
20956;SDS011;10637;47.970;7.830;2024-03-17T10:39:38;15.43;;;5.63;;
20956;SDS011;10637;47.970;7.830;2024-03-17T10:44:41;12.17;;;5.87;;
20956;SDS011;10637;47.970;7.830;2024-03-17T10:49:45;14.23;;;6.17;;
20956;SDS011;10637;47.970;7.830;2024-03-17T10:54:50;15.47;;;6.53;;
20956;SDS011;10637;47.970;7.830;2024-03-17T10:59:55;15.47;;;5.60;;
20956;SDS011;10637;47.970;7.830;2024-03-17T11:04:57;14.83;;;6.13;;
20956;SDS011;10637;47.970;7.830;2024-03-17T11:10:02;16.07;;;6.93;;
20956;SDS011;10637;47.970;7.830;2024-03-17T11:20:27;16.13;;;6.63;;
20956;SDS011;10637;47.970;7.830;2024-03-17T11:35:41;15.83;;;6.70;;
20956;SDS011;10637;47.970;7.830;2024-03-17T11:40:42;14.50;;;7.00;;
20956;SDS011;10637;47.970;7.830;2024-03-17T11:45:43;17.43;;;7.17;;
20956;SDS011;10637;47.970;7.830;2024-03-17T11:50:44;18.33;;;7.73;;
20956;SDS011;10637;47.970;7.830;2024-03-17T11:55:48;14.83;;;6.93;;
20956;SDS011;10637;47.970;7.830;2024-03-17T12:00:52;18.87;;;8.57;;
20956;SDS011;10637;47.970;7.830;2024-03-17T12:05:53;16.87;;;8.33;;
20956;SDS011;10637;47.970;7.830;2024-03-17T12:10:54;17.97;;;8.30;;
20956;SDS011;10637;47.970;7.830;2024-03-17T12:16:11;16.67;;;8.33;;
20956;SDS011;10637;47.970;7.830;2024-03-17T12:21:13;14.87;;;8.03;;
20956;SDS011;10637;47.970;7.830;2024-03-17T12:26:15;17.57;;;7.93;;
20956;SDS011;10637;47.970;7.830;2024-03-17T12:31:16;19.90;;;8.90;;
20956;SDS011;10637;47.970;7.830;2024-03-17T12:36:17;19.33;;;8.70;;
20956;SDS011;10637;47.970;7.830;2024-03-17T12:41:18;16.10;;;7.40;;
20956;SDS011;10637;47.970;7.830;2024-03-17T12:46:21;16.00;;;7.20;;
20956;SDS011;10637;47.970;7.830;2024-03-17T12:51:22;19.33;;;8.17;;
20956;SDS011;10637;47.970;7.830;2024-03-17T12:56:23;16.03;;;8.13;;
20956;SDS011;10637;47.970;7.830;2024-03-17T13:01:42;14.87;;;7.30;;
20956;SDS011;10637;47.970;7.830;2024-03-17T13:06:43;16.17;;;7.87;;
20956;SDS011;10637;47.970;7.830;2024-03-17T13:11:44;16.10;;;7.47;;
20956;SDS011;10637;47.970;7.830;2024-03-17T13:16:44;15.60;;;7.60;;
20956;SDS011;10637;47.970;7.830;2024-03-17T13:21:46;14.23;;;7.10;;
20956;SDS011;10637;47.970;7.830;2024-03-17T13:26:47;18.70;;;7.10;;
20956;SDS011;10637;47.970;7.830;2024-03-17T13:31:49;13.47;;;7.20;;
20956;SDS011;10637;47.970;7.830;2024-03-17T13:36:54;14.87;;;6.23;;
20956;SDS011;10637;47.970;7.830;2024-03-17T13:41:55;14.33;;;5.53;;
20956;SDS011;10637;47.970;7.830;2024-03-17T13:46:57;16.30;;;5.83;;
20956;SDS011;10637;47.970;7.830;2024-03-17T13:51:59;13.90;;;5.50;;
20956;SDS011;10637;47.970;7.830;2024-03-17T13:57:00;17.17;;;6.37;;
20956;SDS011;10637;47.970;7.830;2024-03-17T14:02:02;14.13;;;5.57;;
20956;SDS011;10637;47.970;7.830;2024-03-17T14:07:04;14.33;;;6.43;;
20956;SDS011;10637;47.970;7.830;2024-03-17T14:12:05;17.87;;;6.30;;
20956;SDS011;10637;47.970;7.830;2024-03-17T14:17:07;16.57;;;6.37;;
20956;SDS011;10637;47.970;7.830;2024-03-17T14:22:08;15.83;;;6.87;;
20956;SDS011;10637;47.970;7.830;2024-03-17T14:27:09;17.20;;;7.47;;
20956;SDS011;10637;47.970;7.830;2024-03-17T14:32:12;19.23;;;6.93;;
20956;SDS011;10637;47.970;7.830;2024-03-17T14:37:14;17.77;;;6.87;;
20956;SDS011;10637;47.970;7.830;2024-03-17T14:42:15;18.20;;;6.93;;
20956;SDS011;10637;47.970;7.830;2024-03-17T14:47:16;14.63;;;6.40;;
20956;SDS011;10637;47.970;7.830;2024-03-17T14:52:17;15.20;;;7.00;;
20956;SDS011;10637;47.970;7.830;2024-03-17T14:57:18;16.30;;;7.30;;
20956;SDS011;10637;47.970;7.830;2024-03-17T15:02:20;15.77;;;6.73;;
20956;SDS011;10637;47.970;7.830;2024-03-17T15:07:22;15.80;;;6.37;;
20956;SDS011;10637;47.970;7.830;2024-03-17T15:12:24;15.93;;;7.33;;
20956;SDS011;10637;47.970;7.830;2024-03-17T15:17:24;19.07;;;7.83;;
20956;SDS011;10637;47.970;7.830;2024-03-17T15:22:25;13.50;;;6.73;;
20956;SDS011;10637;47.970;7.830;2024-03-17T15:27:26;18.50;;;7.20;;
20956;SDS011;10637;47.970;7.830;2024-03-17T15:32:28;22.87;;;8.33;;
20956;SDS011;10637;47.970;7.830;2024-03-17T15:37:29;18.60;;;8.70;;
20956;SDS011;10637;47.970;7.830;2024-03-17T15:42:29;21.87;;;10.17;;
20956;SDS011;10637;47.970;7.830;2024-03-17T15:47:30;17.93;;;9.23;;
20956;SDS011;10637;47.970;7.830;2024-03-17T15:52:31;20.13;;;10.67;;
20956;SDS011;10637;47.970;7.830;2024-03-17T15:57:33;21.13;;;10.10;;
20956;SDS011;10637;47.970;7.830;2024-03-17T16:02:34;21.90;;;9.80;;
20956;SDS011;10637;47.970;7.830;2024-03-17T16:07:36;20.93;;;9.27;;
20956;SDS011;10637;47.970;7.830;2024-03-17T16:12:39;19.00;;;9.63;;
20956;SDS011;10637;47.970;7.830;2024-03-17T16:17:40;18.50;;;9.13;;
20956;SDS011;10637;47.970;7.830;2024-03-17T16:22:42;16.87;;;9.63;;
20956;SDS011;10637;47.970;7.830;2024-03-17T16:27:45;24.33;;;11.30;;
20956;SDS011;10637;47.970;7.830;2024-03-17T16:32:46;22.63;;;11.23;;
20956;SDS011;10637;47.970;7.830;2024-03-17T16:37:48;21.63;;;11.63;;
20956;SDS011;10637;47.970;7.830;2024-03-17T16:42:49;25.67;;;10.67;;
20956;SDS011;10637;47.970;7.830;2024-03-17T16:47:51;19.50;;;10.47;;
20956;SDS011;10637;47.970;7.830;2024-03-17T16:52:53;21.50;;;10.87;;
20956;SDS011;10637;47.970;7.830;2024-03-17T16:57:54;21.37;;;10.93;;
20956;SDS011;10637;47.970;7.830;2024-03-17T17:02:54;22.67;;;12.17;;
20956;SDS011;10637;47.970;7.830;2024-03-17T17:07:55;24.33;;;12.37;;
20956;SDS011;10637;47.970;7.830;2024-03-17T17:12:56;26.70;;;12.63;;
20956;SDS011;10637;47.970;7.830;2024-03-17T17:17:56;26.40;;;13.60;;
20956;SDS011;10637;47.970;7.830;2024-03-17T17:22:57;27.20;;;15.60;;
20956;SDS011;10637;47.970;7.830;2024-03-17T17:27:58;26.27;;;14.27;;
20956;SDS011;10637;47.970;7.830;2024-03-17T17:32:59;27.67;;;15.80;;
20956;SDS011;10637;47.970;7.830;2024-03-17T17:38:01;22.90;;;14.77;;
20956;SDS011;10637;47.970;7.830;2024-03-17T17:43:03;30.53;;;17.23;;
20956;SDS011;10637;47.970;7.830;2024-03-17T17:48:04;26.23;;;13.87;;
20956;SDS011;10637;47.970;7.830;2024-03-17T17:53:05;20.97;;;11.60;;
20956;SDS011;10637;47.970;7.830;2024-03-17T17:58:07;16.90;;;9.17;;
20956;SDS011;10637;47.970;7.830;2024-03-17T18:03:08;24.10;;;12.47;;
20956;SDS011;10637;47.970;7.830;2024-03-17T18:08:09;25.10;;;13.70;;
20956;SDS011;10637;47.970;7.830;2024-03-17T18:13:09;32.50;;;18.20;;
20956;SDS011;10637;47.970;7.830;2024-03-17T18:18:10;24.63;;;14.13;;
20956;SDS011;10637;47.970;7.830;2024-03-17T18:23:11;25.20;;;14.00;;
20956;SDS011;10637;47.970;7.830;2024-03-17T18:28:12;25.00;;;13.67;;
20956;SDS011;10637;47.970;7.830;2024-03-17T18:33:13;16.87;;;9.70;;
20956;SDS011;10637;47.970;7.830;2024-03-17T18:38:18;42.43;;;26.53;;
20956;SDS011;10637;47.970;7.830;2024-03-17T18:43:20;38.33;;;22.07;;
20956;SDS011;10637;47.970;7.830;2024-03-17T18:48:21;27.07;;;17.13;;
20956;SDS011;10637;47.970;7.830;2024-03-17T18:53:22;35.60;;;19.63;;
20956;SDS011;10637;47.970;7.830;2024-03-17T18:58:23;21.23;;;11.47;;
20956;SDS011;10637;47.970;7.830;2024-03-17T19:03:24;33.03;;;16.50;;
20956;SDS011;10637;47.970;7.830;2024-03-17T19:08:27;33.70;;;13.87;;
20956;SDS011;10637;47.970;7.830;2024-03-17T19:13:29;20.87;;;7.83;;
20956;SDS011;10637;47.970;7.830;2024-03-17T19:18:32;15.63;;;6.83;;
20956;SDS011;10637;47.970;7.830;2024-03-17T19:23:34;13.70;;;5.10;;
20956;SDS011;10637;47.970;7.830;2024-03-17T19:28:36;10.80;;;3.83;;
20956;SDS011;10637;47.970;7.830;2024-03-17T19:33:37;13.23;;;5.40;;
20956;SDS011;10637;47.970;7.830;2024-03-17T19:38:39;10.47;;;3.83;;
20956;SDS011;10637;47.970;7.830;2024-03-17T19:43:42;13.67;;;4.97;;
20956;SDS011;10637;47.970;7.830;2024-03-17T19:48:45;22.50;;;19.03;;
20956;SDS011;10637;47.970;7.830;2024-03-17T19:53:47;15.70;;;8.93;;
20956;SDS011;10637;47.970;7.830;2024-03-17T19:58:49;12.57;;;3.43;;
20956;SDS011;10637;47.970;7.830;2024-03-17T20:03:50;12.80;;;5.43;;
20956;SDS011;10637;47.970;7.830;2024-03-17T20:08:51;13.70;;;4.40;;
20956;SDS011;10637;47.970;7.830;2024-03-17T20:13:54;14.00;;;6.70;;
20956;SDS011;10637;47.970;7.830;2024-03-17T20:18:54;14.57;;;5.30;;
20956;SDS011;10637;47.970;7.830;2024-03-17T20:23:56;11.53;;;5.00;;
20956;SDS011;10637;47.970;7.830;2024-03-17T20:28:57;13.50;;;5.43;;
20956;SDS011;10637;47.970;7.830;2024-03-17T20:33:58;15.30;;;5.17;;
20956;SDS011;10637;47.970;7.830;2024-03-17T20:38:59;16.53;;;7.03;;
20956;SDS011;10637;47.970;7.830;2024-03-17T20:44:00;15.70;;;6.93;;
20956;SDS011;10637;47.970;7.830;2024-03-17T20:49:01;33.07;;;13.90;;
20956;SDS011;10637;47.970;7.830;2024-03-17T20:54:02;12.13;;;5.10;;
20956;SDS011;10637;47.970;7.830;2024-03-17T20:59:03;13.13;;;5.50;;
20956;SDS011;10637;47.970;7.830;2024-03-17T21:04:04;15.97;;;6.83;;
20956;SDS011;10637;47.970;7.830;2024-03-17T21:09:06;16.07;;;5.87;;
20956;SDS011;10637;47.970;7.830;2024-03-17T21:14:10;19.07;;;8.17;;
20956;SDS011;10637;47.970;7.830;2024-03-17T21:19:11;12.23;;;5.47;;
20956;SDS011;10637;47.970;7.830;2024-03-17T21:24:11;13.60;;;5.17;;
20956;SDS011;10637;47.970;7.830;2024-03-17T21:29:12;14.23;;;4.70;;
20956;SDS011;10637;47.970;7.830;2024-03-17T21:34:13;16.37;;;4.70;;
20956;SDS011;10637;47.970;7.830;2024-03-17T21:39:14;12.00;;;4.40;;
20956;SDS011;10637;47.970;7.830;2024-03-17T21:44:17;12.63;;;4.57;;
20956;SDS011;10637;47.970;7.830;2024-03-17T21:49:18;17.20;;;4.03;;
20956;SDS011;10637;47.970;7.830;2024-03-17T21:54:18;11.50;;;3.90;;
20956;SDS011;10637;47.970;7.830;2024-03-17T21:59:19;9.90;;;3.67;;
20956;SDS011;10637;47.970;7.830;2024-03-17T22:04:20;11.17;;;3.40;;
20956;SDS011;10637;47.970;7.830;2024-03-17T22:09:21;10.50;;;3.60;;
20956;SDS011;10637;47.970;7.830;2024-03-17T22:14:22;11.43;;;3.40;;
20956;SDS011;10637;47.970;7.830;2024-03-17T22:19:23;14.30;;;3.43;;
20956;SDS011;10637;47.970;7.830;2024-03-17T22:24:24;12.53;;;3.37;;
20956;SDS011;10637;47.970;7.830;2024-03-17T22:29:25;10.63;;;3.20;;
20956;SDS011;10637;47.970;7.830;2024-03-17T22:34:25;9.30;;;3.63;;
20956;SDS011;10637;47.970;7.830;2024-03-17T22:39:27;11.63;;;3.90;;
20956;SDS011;10637;47.970;7.830;2024-03-17T22:44:28;11.57;;;4.00;;
20956;SDS011;10637;47.970;7.830;2024-03-17T22:49:28;12.63;;;3.87;;
20956;SDS011;10637;47.970;7.830;2024-03-17T22:54:31;12.47;;;4.13;;
20956;SDS011;10637;47.970;7.830;2024-03-17T22:59:31;15.97;;;3.70;;
20956;SDS011;10637;47.970;7.830;2024-03-17T23:04:32;12.20;;;4.23;;
20956;SDS011;10637;47.970;7.830;2024-03-17T23:09:33;13.63;;;4.43;;
20956;SDS011;10637;47.970;7.830;2024-03-17T23:14:34;22.97;;;7.67;;
20956;SDS011;10637;47.970;7.830;2024-03-17T23:19:35;17.27;;;6.50;;
20956;SDS011;10637;47.970;7.830;2024-03-17T23:24:35;16.60;;;6.77;;
20956;SDS011;10637;47.970;7.830;2024-03-17T23:29:37;15.13;;;5.30;;
20956;SDS011;10637;47.970;7.830;2024-03-17T23:34:38;17.57;;;4.37;;
20956;SDS011;10637;47.970;7.830;2024-03-17T23:39:38;13.70;;;4.00;;
20956;SDS011;10637;47.970;7.830;2024-03-17T23:44:39;13.50;;;4.07;;
20956;SDS011;10637;47.970;7.830;2024-03-17T23:49:40;11.57;;;3.60;;
20956;SDS011;10637;47.970;7.830;2024-03-17T23:54:41;14.07;;;4.20;;
20956;SDS011;10637;47.970;7.830;2024-03-17T23:59:44;12.73;;;4.00;;
